Time;durP1;ratioP1;P1;durP2;ratioP2;P2;SDS_P1;SDS_P2;PMS_P1;PMS_P2;Temp;Humidity;BMP_temperature;BMP_pressure;BME280_temperature;BME280_humidity;BME280_pressure;Samples;Min_cycle;Max_cycle;Signal;HPM_P1;HPM_P2
2021/06/28 00:02:47;;;;;;;;;17.80;16.80;;;;;23.39;52.97;98877.47;6039952;28;125939;-59
2021/06/28 00:05:51;;;;;;;;;19.00;17.00;;;;;23.29;53.28;98875.72;6028353;28;124820;-59
2021/06/28 00:08:55;;;;;;;;;25.40;23.40;;;;;23.21;53.25;98884.69;6040095;28;124978;-61
2021/06/28 00:11:58;;;;;;;;;25.00;24.00;;;;;23.09;53.52;98881.59;6035876;28;126076;-58
2021/06/28 00:15:06;;;;;;;;;31.50;28.00;;;;;23.03;53.63;98871.81;6038448;28;127335;-59
2021/06/28 00:18:10;;;;;;;;;27.00;26.00;;;;;22.96;54.02;98866.72;6046212;28;124293;-59
2021/06/28 00:21:13;;;;;;;;;28.60;26.60;;;;;22.96;54.12;98861.22;6042145;28;125682;-59
2021/06/28 00:24:16;;;;;;;;;26.50;26.00;;;;;22.96;54.19;98860.41;6043417;28;125030;-59
2021/06/28 00:27:22;;;;;;;;;28.60;27.00;;;;;22.93;54.15;98861.81;6064138;28;126465;-58
2021/06/28 00:30:29;;;;;;;;;27.00;24.40;;;;;22.77;53.89;98842.03;6035515;28;124894;-58
2021/06/28 00:33:32;;;;;;;;;30.40;27.40;;;;;22.84;54.20;98858.16;6057243;28;125815;-60
2021/06/28 00:36:35;;;;;;;;;29.33;28.00;;;;;22.78;54.30;98859.34;6058732;28;127041;-58
2021/06/28 00:39:38;;;;;;;;;27.80;27.00;;;;;22.80;54.13;98859.88;6062241;28;126449;-59
2021/06/28 00:42:42;;;;;;;;;25.20;24.20;;;;;22.81;54.43;98864.25;6046249;28;125158;-59
2021/06/28 00:45:46;;;;;;;;;28.00;25.40;;;;;22.82;54.00;98854.91;6056713;28;126064;-57
2021/06/28 00:48:50;;;;;;;;;27.50;24.75;;;;;22.78;54.27;98857.41;6054043;28;124953;-57
2021/06/28 00:51:57;;;;;;;;;31.40;29.20;;;;;22.75;54.54;98852.53;6063681;28;124838;-60
2021/06/28 00:55:00;;;;;;;;;30.40;29.00;;;;;22.89;54.61;98863.56;6045206;28;125698;-61
2021/06/28 00:58:04;;;;;;;;;30.00;28.00;;;;;22.97;54.37;98860.09;6056328;28;124060;-59
2021/06/28 01:01:10;;;;;;;;;31.00;30.00;;;;;22.99;54.38;98859.78;6067841;28;126027;-58
2021/06/28 01:04:14;;;;;;;;;28.20;26.00;;;;;22.99;53.86;98863.38;6046383;28;127011;-59
2021/06/28 01:07:18;;;;;;;;;29.00;27.00;;;;;22.96;53.77;98860.41;6063641;28;126906;-59
2021/06/28 01:10:22;;;;;;;;;32.40;27.00;;;;;22.87;54.02;98866.59;6067129;28;127839;-61
2021/06/28 01:13:26;;;;;;;;;28.00;26.80;;;;;22.81;53.93;98862.31;6068350;28;126398;-58
2021/06/28 01:16:31;;;;;;;;;27.00;26.40;;;;;22.76;53.88;98864.34;6050096;28;125012;-59
2021/06/28 01:19:38;;;;;;;;;29.25;25.25;;;;;22.72;54.16;98857.81;6061145;28;125844;-59
2021/06/28 01:22:46;;;;;;;;;27.75;23.75;;;;;22.74;53.84;98861.06;6062653;28;124659;-60
2021/06/28 01:25:54;;;;;;;;;27.80;26.00;;;;;22.68;53.67;98857.56;6048422;28;126735;-58
2021/06/28 01:28:58;;;;;;;;;25.00;24.00;;;;;22.63;53.82;98856.81;6054447;28;124894;-59
2021/06/28 01:32:13;;;;;;;;;27.00;25.00;;;;;22.57;53.70;98858.06;6051356;28;126388;-60
2021/06/28 01:35:18;;;;;;;;;24.00;23.40;;;;;22.55;53.40;98863.03;6047149;28;125857;-59
2021/06/28 01:38:21;;;;;;;;;24.00;23.00;;;;;22.53;53.48;98852.31;6047859;28;125010;-59
2021/06/28 01:41:25;;;;;;;;;25.60;23.00;;;;;22.53;54.05;98857.81;6058889;28;124898;-60
2021/06/28 01:44:29;;;;;;;;;23.80;22.80;;;;;22.50;53.31;98854.88;6055401;28;126740;-60
2021/06/28 01:47:32;;;;;;;;;24.25;22.25;;;;;22.36;53.85;98861.13;6052655;28;124779;-60
2021/06/28 01:50:37;;;;;;;;;24.00;22.00;;;;;22.36;53.80;98860.31;6043057;28;125224;-58
2021/06/28 01:53:40;;;;;;;;;24.00;23.00;;;;;22.35;53.76;98854.00;6049218;28;124976;-58
2021/06/28 01:56:45;;;;;;;;;24.00;23.00;;;;;22.34;53.79;98854.28;6064886;28;124338;-59
2021/06/28 01:59:48;;;;;;;;;25.40;22.40;;;;;22.29;53.88;98846.94;6066166;28;124214;-58
2021/06/28 02:03:00;;;;;;;;;22.40;21.40;;;;;22.30;54.30;98854.06;6066836;28;126274;-61
2021/06/28 02:06:04;;;;;;;;;21.00;20.00;;;;;22.27;53.86;98862.94;6056271;28;125992;-59
2021/06/28 02:09:07;;;;;;;;;25.00;22.00;;;;;22.25;53.62;98864.31;6047468;28;126324;-57
2021/06/28 02:12:12;;;;;;;;;20.60;19.00;;;;;22.14;53.91;98866.41;6039420;28;127062;-61
2021/06/28 02:15:20;;;;;;;;;21.40;20.40;;;;;22.09;53.63;98866.47;6041830;28;126092;-58
2021/06/28 02:18:24;;;;;;;;;21.60;20.60;;;;;22.01;53.62;98867.16;6066558;28;126114;-60
2021/06/28 02:21:27;;;;;;;;;26.25;24.25;;;;;21.91;54.11;98870.00;6066904;28;126036;-61
2021/06/28 02:24:30;;;;;;;;;22.00;21.00;;;;;21.82;54.06;98874.53;6054633;28;124804;-58
2021/06/28 02:27:36;;;;;;;;;22.60;22.00;;;;;21.76;54.04;98873.78;6061217;28;126786;-59
2021/06/28 02:30:39;;;;;;;;;25.00;23.00;;;;;21.70;54.46;98882.41;6048254;28;127019;-60
2021/06/28 02:33:43;;;;;;;;;24.00;22.60;;;;;21.70;54.53;98876.91;6052100;28;125982;-57
2021/06/28 02:36:46;;;;;;;;;20.25;19.25;;;;;21.68;54.23;98881.84;6040208;28;126221;-60
2021/06/28 02:39:49;;;;;;;;;19.80;19.00;;;;;21.66;54.43;98873.09;6050171;28;124973;-57
2021/06/28 02:43:02;;;;;;;;;20.00;20.00;;;;;21.60;54.09;98875.09;6048467;28;124979;-57
2021/06/28 02:46:24;;;;;;;;;20.20;17.80;;;;;21.56;54.62;98874.88;6042331;28;97857;-57
2021/06/28 02:49:27;;;;;;;;;20.00;19.00;;;;;21.63;54.49;98879.19;6035950;28;126290;-60
2021/06/28 02:52:30;;;;;;;;;20.00;19.25;;;;;21.63;54.31;98876.44;6048882;28;126043;-57
2021/06/28 02:55:34;;;;;;;;;18.00;17.00;;;;;21.61;54.01;98863.00;6047719;28;127023;-57
2021/06/28 02:58:39;;;;;;;;;22.00;20.00;;;;;21.54;54.41;98868.06;6046760;28;125973;-59
2021/06/28 03:01:43;;;;;;;;;21.00;20.00;;;;;21.50;54.79;98867.00;6051129;28;124320;-59
2021/06/28 03:04:58;;;;;;;;;19.40;19.00;;;;;21.59;54.56;98865.25;6219588;28;96731;-57
2021/06/28 03:08:13;;;;;;;;;21.40;20.40;;;;;21.63;54.49;98865.47;6243444;27;96114;-57
2021/06/28 03:11:28;;;;;;;;;20.50;19.50;;;;;21.63;54.35;98863.53;6248253;27;96719;-59
2021/06/28 03:14:43;;;;;;;;;20.00;19.00;;;;;21.66;54.85;98867.59;6249437;27;96272;-59
2021/06/28 03:17:58;;;;;;;;;21.00;18.00;;;;;21.72;54.70;98869.19;6248911;27;96632;-58
2021/06/28 03:21:13;;;;;;;;;19.80;19.20;;;;;21.67;54.88;98867.31;6249725;27;96877;-59
2021/06/28 03:24:28;;;;;;;;;19.40;18.00;;;;;21.76;54.73;98868.28;6225142;28;96424;-59
2021/06/28 03:27:43;;;;;;;;;21.00;20.00;;;;;21.81;54.48;98868.22;6284614;27;96554;-59
2021/06/28 03:30:58;;;;;;;;;21.40;21.00;;;;;21.56;54.50;98833.72;6260456;27;97277;-59
2021/06/28 03:34:13;;;;;;;;;21.33;19.33;;;;;21.84;54.53;98872.31;6260397;27;96541;-60
2021/06/28 03:37:27;;;;;;;;;21.00;19.00;;;;;21.91;55.03;98878.25;6255629;27;96476;-59
2021/06/28 03:40:43;;;;;;;;;23.00;20.00;;;;;22.03;55.13;98876.75;6260340;27;96411;-56
2021/06/28 03:43:57;;;;;;;;;22.60;21.60;;;;;22.11;54.53;98878.00;6285192;27;96475;-59
2021/06/28 03:47:11;;;;;;;;;20.50;20.00;;;;;22.21;54.72;98879.78;6314088;27;1355133;-58
2021/06/28 03:50:26;;;;;;;;;21.00;20.60;;;;;22.33;54.53;98871.91;6260344;27;96477;-57
2021/06/28 03:53:41;;;;;;;;;22.50;20.00;;;;;22.45;54.28;98878.56;6261893;27;96506;-58
2021/06/28 03:56:56;;;;;;;;;21.20;20.60;;;;;22.52;54.33;98866.38;6236080;28;96175;-58
2021/06/28 04:00:12;;;;;;;;;22.50;21.50;;;;;22.60;54.17;98866.50;6335298;27;1348837;-58
2021/06/28 04:03:29;;;;;;;;;23.00;22.40;;;;;22.66;54.45;98872.72;6258423;27;96691;-58
2021/06/28 04:06:44;;;;;;;;;24.25;23.00;;;;;22.72;54.55;98863.31;6250179;27;96213;-59
2021/06/28 04:09:59;;;;;;;;;23.67;22.00;;;;;22.95;54.47;98878.84;6236568;27;96684;-60
2021/06/28 04:13:14;;;;;;;;;25.00;23.00;;;;;23.11;54.43;98884.88;6253768;27;96452;-61
2021/06/28 04:16:30;;;;;;;;;26.00;25.00;;;;;23.24;54.08;98881.31;6282804;27;96316;-60
2021/06/28 04:19:44;;;;;;;;;20.60;20.00;;;;;23.38;53.47;98890.41;6255306;27;96536;-59
2021/06/28 04:22:59;;;;;;;;;25.80;23.40;;;;;23.49;53.18;98891.88;6252480;27;96340;-58
2021/06/28 04:26:14;;;;;;;;;22.25;22.25;;;;;23.62;52.86;98892.97;6261137;27;96447;-58
2021/06/28 04:29:29;;;;;;;;;21.20;20.20;;;;;23.79;52.88;98892.34;6261397;27;96493;-58
2021/06/28 04:32:45;;;;;;;;;22.80;19.80;;;;;23.90;52.36;98893.75;6260332;27;96308;-60
2021/06/28 04:36:01;;;;;;;;;21.00;20.00;;;;;24.08;51.68;98899.13;6248177;27;96899;-57
2021/06/28 04:39:16;;;;;;;;;23.50;21.00;;;;;24.24;51.38;98896.06;6257967;27;96341;-60
2021/06/28 04:42:31;;;;;;;;;19.50;19.00;;;;;24.38;51.04;98888.56;6252378;27;96735;-59
2021/06/28 04:45:46;;;;;;;;;21.20;19.60;;;;;24.49;50.30;98898.19;6249965;27;96741;-59
2021/06/28 04:49:01;;;;;;;;;20.80;19.00;;;;;24.63;50.03;98898.16;6258573;27;96489;-58
2021/06/28 04:52:17;;;;;;;;;21.50;21.00;;;;;24.76;49.81;98900.84;6252933;27;96760;-58
2021/06/28 04:55:32;;;;;;;;;20.40;19.40;;;;;24.89;49.38;98905.50;6275508;27;96377;-60
2021/06/28 04:58:47;;;;;;;;;20.00;19.00;;;;;25.04;49.52;98898.78;6229704;27;96430;-59
2021/06/28 05:02:02;;;;;;;;;19.75;17.75;;;;;25.12;48.83;98902.72;6250654;27;97041;-58
2021/06/28 05:05:17;;;;;;;;;19.60;18.60;;;;;25.20;48.25;98897.25;6234914;27;96240;-59
2021/06/28 05:08:32;;;;;;;;;21.00;20.00;;;;;25.29;48.17;98902.78;6243394;27;96391;-58
2021/06/28 05:11:47;;;;;;;;;22.60;21.00;;;;;25.39;47.99;98908.84;6220708;27;96655;-59
2021/06/28 05:15:03;;;;;;;;;21.00;19.00;;;;;25.49;47.92;98905.00;6255468;27;96445;-59
2021/06/28 05:18:17;;;;;;;;;21.00;19.50;;;;;25.49;47.58;98909.69;6251487;27;97027;-59
2021/06/28 05:21:32;;;;;;;;;20.40;20.00;;;;;25.57;47.83;98903.41;6222696;28;96300;-57
2021/06/28 05:24:47;;;;;;;;;19.00;18.00;;;;;25.70;47.55;98913.56;6248334;27;96839;-58
2021/06/28 05:28:02;;;;;;;;;21.00;19.80;;;;;25.76;47.47;98907.53;6259532;27;96832;-57
2021/06/28 05:31:17;;;;;;;;;18.00;17.20;;;;;25.79;47.19;98926.25;6257811;27;96355;-58
2021/06/28 05:34:32;;;;;;;;;20.00;19.00;;;;;25.98;47.41;98925.97;6245072;27;96559;-59
2021/06/28 05:37:47;;;;;;;;;20.00;19.00;;;;;26.17;47.45;98925.66;6257202;27;97088;-58
2021/06/28 05:41:02;;;;;;;;;19.60;19.00;;;;;26.29;46.87;98934.19;6250771;27;96527;-58
2021/06/28 05:44:17;;;;;;;;;21.00;19.00;;;;;26.35;46.26;98938.41;6231588;28;96584;-59
2021/06/28 05:47:33;;;;;;;;;20.00;17.60;;;;;26.43;46.56;98945.09;6309150;27;96990;-57
2021/06/28 05:50:49;;;;;;;;;22.60;20.60;;;;;26.45;46.25;98940.84;6255916;27;96603;-59
2021/06/28 05:54:05;;;;;;;;;20.50;18.75;;;;;26.55;45.91;98945.22;6232474;28;96888;-57
2021/06/28 05:57:22;;;;;;;;;19.40;17.40;;;;;26.75;45.74;98939.06;6234931;27;96297;-58
2021/06/28 06:00:37;;;;;;;;;19.00;18.75;;;;;26.85;45.51;98938.72;6277313;27;96480;-59
2021/06/28 06:03:52;;;;;;;;;20.00;19.00;;;;;26.90;45.34;98935.00;6229977;28;96880;-59
2021/06/28 06:07:07;;;;;;;;;20.00;18.40;;;;;27.00;45.53;98941.00;6248708;27;96769;-59
2021/06/28 06:10:22;;;;;;;;;19.50;18.50;;;;;27.10;45.25;98942.63;6248454;27;96521;-59
2021/06/28 06:13:37;;;;;;;;;21.00;19.60;;;;;27.22;44.45;98944.72;6247678;27;97167;-59
2021/06/28 06:16:52;;;;;;;;;22.50;21.50;;;;;27.34;45.09;98950.38;6220605;27;96301;-62
2021/06/28 06:20:09;;;;;;;;;21.00;20.25;;;;;27.34;44.70;98945.66;6241812;27;96573;-60
2021/06/28 06:23:24;;;;;;;;;19.40;18.60;;;;;27.41;45.45;98943.19;6234380;27;96449;-60
2021/06/28 06:26:39;;;;;;;;;18.00;16.00;;;;;27.57;44.99;98944.28;6217777;28;96571;-61
2021/06/28 06:29:54;;;;;;;;;18.00;16.33;;;;;27.75;44.90;98941.44;6242184;27;96865;-57
2021/06/28 06:33:09;;;;;;;;;19.00;18.00;;;;;27.90;43.98;98938.94;6242743;27;96555;-60
2021/06/28 06:36:24;;;;;;;;;19.00;18.00;;;;;28.09;43.15;98932.94;6231563;27;96532;-57
2021/06/28 06:39:39;;;;;;;;;19.00;18.00;;;;;28.31;42.41;98938.19;6225095;27;96942;-59
2021/06/28 06:42:55;;;;;;;;;16.25;16.00;;;;;28.39;42.04;98940.06;6229313;27;96251;-60
2021/06/28 06:46:10;;;;;;;;;19.00;18.60;;;;;28.48;41.86;98947.53;6210621;28;96705;-58
2021/06/28 06:49:26;;;;;;;;;18.60;17.00;;;;;28.54;42.38;98940.66;6232716;27;96883;-58
2021/06/28 06:52:41;;;;;;;;;19.00;17.00;;;;;28.69;42.94;98928.91;6231551;27;96844;-58
2021/06/28 06:55:54;;;;;;;;;18.00;16.00;;;;;29.06;40.90;98944.59;6316131;27;1346855;-60
2021/06/28 06:59:09;;;;;;;;;15.60;14.00;;;;;29.21;38.95;98951.47;6245266;27;96997;-59
2021/06/28 07:02:24;;;;;;;;;16.60;15.00;;;;;29.33;38.43;98943.19;6245153;27;96566;-59
2021/06/28 07:05:39;;;;;;;;;16.00;15.40;;;;;29.39;37.32;98949.34;6240222;27;96291;-58
2021/06/28 07:08:54;;;;;;;;;14.60;13.60;;;;;29.66;39.89;98955.03;6240514;27;96818;-58
2021/06/28 07:12:10;;;;;;;;;16.00;15.60;;;;;29.86;38.25;98938.63;6241515;27;96481;-58
2021/06/28 07:15:25;;;;;;;;;16.00;16.00;;;;;30.21;38.49;98958.41;6233660;27;96264;-59
2021/06/28 07:18:41;;;;;;;;;19.40;18.00;;;;;30.36;37.68;98955.72;6233413;27;96431;-59
2021/06/28 07:21:56;;;;;;;;;18.00;17.00;;;;;30.38;36.96;98960.97;6248526;27;96759;-57
2021/06/28 07:25:13;;;;;;;;;15.00;15.00;;;;;30.44;37.81;98959.56;6224255;27;96382;-58
2021/06/28 07:28:29;;;;;;;;;17.00;16.00;;;;;30.62;36.58;98966.50;6272296;27;96693;-57
2021/06/28 07:31:43;;;;;;;;;15.00;14.40;;;;;30.80;35.71;98956.69;6247402;27;96425;-60
2021/06/28 07:34:58;;;;;;;;;15.75;14.75;;;;;31.06;35.55;98961.03;6248077;27;96605;-57
2021/06/28 07:38:13;;;;;;;;;15.20;15.00;;;;;31.28;35.15;98964.03;6321225;27;96853;-59
2021/06/28 07:41:34;;;;;;;;;16.00;15.00;;;;;31.18;33.01;98916.41;6232694;28;96340;-58
2021/06/28 07:44:48;;;;;;;;;14.00;13.00;;;;;31.53;32.57;98963.88;6322316;27;96869;-61
2021/06/28 07:48:04;;;;;;;;;14.60;13.00;;;;;31.61;32.82;98966.53;6233939;28;96339;-61
2021/06/28 07:51:20;;;;;;;;;15.00;15.00;;;;;31.73;32.89;98966.44;6217579;27;97133;-62
2021/06/28 07:54:35;;;;;;;;;14.80;12.80;;;;;31.56;32.20;98964.03;6254754;27;96880;-58
2021/06/28 07:57:50;;;;;;;;;16.00;15.00;;;;;31.63;32.56;98966.97;6256788;27;96330;-59
2021/06/28 08:01:05;;;;;;;;;16.00;15.00;;;;;31.87;32.86;98962.38;6282390;27;96241;-58
2021/06/28 08:04:20;;;;;;;;;14.00;13.00;;;;;32.14;31.70;98962.31;6235964;27;96276;-59
2021/06/28 08:07:35;;;;;;;;;15.40;15.00;;;;;32.33;32.03;98958.75;6329354;27;96365;-60
2021/06/28 08:10:50;;;;;;;;;17.50;16.50;;;;;32.53;31.08;98967.97;6326736;27;96844;-60
2021/06/28 08:14:05;;;;;;;;;18.00;16.40;;;;;32.57;30.03;98960.47;6254968;27;96317;-60
2021/06/28 08:17:20;;;;;;;;;16.40;15.00;;;;;32.43;29.32;98960.97;6255600;27;96413;-59
2021/06/28 08:20:37;;;;;;;;;15.00;15.00;;;;;32.42;30.05;98964.94;6250808;27;96451;-60
2021/06/28 08:23:53;;;;;;;;;17.00;15.00;;;;;32.47;29.43;98963.84;6219444;28;96505;-62
2021/06/28 08:27:11;;;;;;;;;14.00;14.00;;;;;32.74;31.10;98959.28;6253009;27;96457;-60
2021/06/28 08:30:26;;;;;;;;;14.00;14.00;;;;;32.99;30.02;98966.16;6321507;27;96899;-59
2021/06/28 08:33:43;;;;;;;;;16.00;14.00;;;;;33.24;31.24;98967.50;6244192;27;96290;-60
2021/06/28 08:36:59;;;;;;;;;14.00;13.25;;;;;33.54;31.36;98970.44;6221321;27;96556;-59
2021/06/28 08:40:13;;;;;;;;;15.40;14.00;;;;;33.84;30.00;98963.03;6232901;27;97895;-60
2021/06/28 08:43:28;;;;;;;;;15.00;14.00;;;;;34.03;30.02;98973.31;6310080;27;96228;-61
2021/06/28 08:46:45;;;;;;;;;15.00;14.40;;;;;34.04;29.91;98965.72;6246916;27;96500;-59
2021/06/28 08:50:01;;;;;;;;;14.80;13.80;;;;;34.11;27.97;98965.84;6246417;27;96876;-59
2021/06/28 08:53:18;;;;;;;;;17.00;14.60;;;;;33.98;27.61;98962.44;6253009;27;96287;-62
2021/06/28 08:56:33;;;;;;;;;15.00;15.00;;;;;33.90;27.27;98957.94;6252449;27;96303;-61
2021/06/28 08:59:48;;;;;;;;;14.20;14.00;;;;;33.78;27.44;98967.31;6247901;27;97227;-60
2021/06/28 09:03:05;;;;;;;;;16.00;15.40;;;;;33.59;27.05;98961.75;6236819;27;96390;-58
2021/06/28 09:06:25;;;;;;;;;15.20;15.20;;;;;33.61;27.26;98965.00;6330727;27;96872;-61
2021/06/28 09:09:41;;;;;;;;;16.00;15.80;;;;;33.66;28.75;98955.50;6255234;27;96329;-60
2021/06/28 09:12:56;;;;;;;;;13.80;13.80;;;;;33.78;29.16;98958.13;6251030;27;97020;-59
2021/06/28 09:16:16;;;;;;;;;15.60;13.60;;;;;34.06;27.41;98955.78;6257607;27;96941;-61
2021/06/28 09:19:30;;;;;;;;;14.00;14.00;;;;;34.11;27.74;98957.47;6252578;27;96550;-60
2021/06/28 09:22:50;;;;;;;;;13.50;12.50;;;;;34.24;28.33;98954.09;6248281;27;96683;-61
2021/06/28 09:26:11;;;;;;;;;16.00;14.00;;;;;34.42;26.96;98945.13;6256613;27;96485;-60
2021/06/28 09:29:36;;;;;;;;;14.00;14.00;;;;;34.61;27.16;98956.19;6253429;27;96962;-61
2021/06/28 09:32:56;;;;;;;;;15.00;14.50;;;;;34.95;28.17;98963.47;6336124;27;96513;-60
2021/06/28 09:36:22;;;;;;;;;14.00;14.00;;;;;35.33;27.90;98964.34;6258294;27;96456;-64
2021/06/28 09:39:41;;;;;;;;;14.75;13.75;;;;;35.40;26.20;98962.41;6257155;27;96286;-66
2021/06/28 09:42:56;;;;;;;;;14.00;13.00;;;;;35.46;25.87;98960.88;6259919;27;96754;-65
2021/06/28 09:46:18;;;;;;;;;17.00;15.00;;;;;35.63;26.78;98959.41;6241519;27;96902;-63
2021/06/28 09:49:34;;;;;;;;;14.25;14.00;;;;;35.38;25.76;98952.78;6256782;27;96511;-67
2021/06/28 09:52:51;;;;;;;;;15.67;15.67;;;;;35.24;26.38;98947.81;6257730;27;96421;-63
2021/06/28 09:56:35;;;;;;;;;17.50;16.50;;;;;35.45;25.36;98952.84;6296970;27;96461;-63
2021/06/28 10:00:22;;;;;;;;;15.60;14.60;;;;;35.33;25.15;98942.72;6300104;27;97135;-67
2021/06/28 10:03:53;;;;;;;;;14.00;13.00;;;;;35.55;24.84;98940.91;6280370;27;96822;-62
2021/06/28 10:07:34;;;;;;;;;16.00;15.00;;;;;35.50;24.59;98930.06;6285228;27;96253;-65
2021/06/28 10:11:17;;;;;;;;;17.00;17.00;;;;;35.33;24.79;98934.31;6280731;27;98745;-64
2021/06/28 10:14:49;;;;;;;;;14.80;13.40;;;;;35.31;24.72;98930.28;6342036;27;96758;-64
2021/06/28 10:18:22;;;;;;;;;15.00;15.00;;;;;35.68;25.25;98921.84;6354561;27;96442;-64
2021/06/28 10:21:56;;;;;;;;;13.00;13.00;;;;;35.95;22.88;98932.47;6279696;27;96483;-64
2021/06/28 10:25:27;;;;;;;;;14.20;14.00;;;;;36.09;23.73;98926.16;6273640;27;96335;-61
2021/06/28 10:29:01;;;;;;;;;16.00;15.00;;;;;35.79;23.31;98925.53;6274177;27;96377;-61
2021/06/28 10:32:33;;;;;;;;;19.25;16.50;;;;;36.10;23.49;98918.53;6282061;27;96811;-62
2021/06/28 10:36:05;;;;;;;;;14.00;13.00;;;;;36.33;24.54;98911.50;6283003;27;96231;-63
2021/06/28 10:39:33;;;;;;;;;14.00;13.00;;;;;36.56;23.15;98916.00;6279401;27;96435;-62
2021/06/28 10:43:23;;;;;;;;;19.00;17.50;;;;;36.62;25.73;98887.19;6272212;27;96689;-62
2021/06/28 10:46:40;;;;;;;;;16.60;16.00;;;;;36.89;24.41;98911.00;6233943;27;97279;-63
2021/06/28 10:49:58;;;;;;;;;19.00;17.00;;;;;37.08;24.76;98907.06;6251822;27;96708;-63
2021/06/28 10:54:00;;;;;;;;;15.00;15.00;;;;;37.27;25.93;98908.69;6278815;27;96696;-63
2021/06/28 10:57:39;;;;;;;;;16.60;15.60;;;;;37.18;24.70;98899.84;6250937;27;97350;-59
2021/06/28 11:01:15;;;;;;;;;16.60;16.00;;;;;37.11;23.73;98900.63;6257725;27;97040;-62
2021/06/28 11:04:39;;;;;;;;;17.00;16.00;;;;;36.91;23.76;98904.94;6258858;27;97148;-63
2021/06/28 11:08:21;;;;;;;;;14.50;14.50;;;;;36.93;24.64;98901.75;6257411;27;97255;-64
2021/06/28 11:12:00;;;;;;;;;15.80;15.00;;;;;36.97;23.61;98896.94;6265060;27;96701;-64
2021/06/28 11:15:26;;;;;;;;;16.00;16.00;;;;;37.06;23.05;98909.41;6255121;27;97754;-63
2021/06/28 11:18:48;;;;;;;;;16.20;15.80;;;;;36.47;23.99;98889.09;6245590;27;97343;-61
2021/06/28 11:22:32;;;;;;;;;16.00;15.00;;;;;36.45;24.56;98897.13;6238027;27;96687;-61
2021/06/28 11:25:41;;;;;;;;;16.60;16.00;;;;;36.28;24.90;98891.41;6234392;27;124719;-65
2021/06/28 11:29:47;;;;;;;;;16.00;16.00;;;;;36.15;24.66;98890.16;6297835;27;96327;-61
2021/06/28 11:33:16;;;;;;;;;15.00;14.00;;;;;35.70;23.85;98889.41;6274289;27;96349;-62
2021/06/28 11:36:37;;;;;;;;;13.80;13.80;;;;;35.62;25.95;98876.50;6243726;27;124944;-62
2021/06/28 11:39:54;;;;;;;;;16.00;16.00;;;;;36.00;26.04;98878.81;6246576;27;124703;-61
2021/06/28 11:43:43;;;;;;;;;16.00;15.00;;;;;36.30;23.93;98883.41;6269478;27;96362;-63
2021/06/28 11:47:16;;;;;;;;;17.60;16.60;;;;;36.37;23.85;98869.41;6349604;27;96803;-62
2021/06/28 11:50:49;;;;;;;;;18.00;17.00;;;;;35.97;23.37;98873.19;6339652;27;96272;-63
2021/06/28 11:54:24;;;;;;;;;17.00;16.00;;;;;35.57;23.89;98874.84;6338260;27;96449;-63
2021/06/28 11:57:52;;;;;;;;;16.60;16.00;;;;;35.08;24.50;98866.78;6285848;27;96681;-61
2021/06/28 12:01:23;;;;;;;;;15.40;15.00;;;;;34.68;24.07;98866.72;6276379;27;96341;-63
2021/06/28 12:05:00;;;;;;;;;15.00;15.00;;;;;34.35;24.67;98865.50;6275850;27;97266;-64
2021/06/28 12:08:30;;;;;;;;;16.00;16.00;;;;;34.58;26.56;98858.97;6296193;27;96922;-63
2021/06/28 12:12:07;;;;;;;;;15.50;15.00;;;;;34.91;26.79;98858.16;6282772;27;96437;-62
2021/06/28 12:15:37;;;;;;;;;16.20;14.60;;;;;35.22;27.35;98848.50;6279704;27;96604;-63
2021/06/28 12:19:11;;;;;;;;;17.00;15.40;;;;;35.56;26.75;98853.63;6278201;27;97516;-63
2021/06/28 12:22:52;;;;;;;;;16.60;16.60;;;;;35.79;26.06;98844.97;6259723;27;96380;-63
2021/06/28 12:26:21;;;;;;;;;15.00;14.00;;;;;35.78;25.26;98848.97;6285388;27;96347;-64
2021/06/28 12:29:38;;;;;;;;;17.40;16.00;;;;;35.64;24.55;98835.63;6259328;27;96355;-64
2021/06/28 12:32:56;;;;;;;;;19.00;17.00;;;;;35.62;24.78;98840.03;6330017;27;96755;-64
2021/06/28 12:36:11;;;;;;;;;16.00;15.60;;;;;35.14;25.87;98844.78;6333347;27;97153;-63
2021/06/28 12:39:34;;;;;;;;;18.00;16.75;;;;;35.29;25.54;98838.16;6255346;27;96676;-63
2021/06/28 12:42:51;;;;;;;;;16.60;16.00;;;;;35.36;26.40;98827.00;6240121;27;96517;-62
2021/06/28 12:46:08;;;;;;;;;16.60;14.60;;;;;35.39;24.08;98829.03;6252111;27;97174;-65
2021/06/28 12:49:26;;;;;;;;;16.60;15.40;;;;;35.37;26.09;98831.44;6228092;27;96597;-65
2021/06/28 12:52:40;;;;;;;;;14.00;13.00;;;;;35.18;24.11;98818.47;6244047;27;96725;-65
2021/06/28 12:56:14;;;;;;;;;14.40;13.40;;;;;35.02;24.40;98829.06;6279875;27;96484;-64
2021/06/28 12:59:46;;;;;;;;;14.00;14.00;;;;;35.00;24.56;98816.63;6346179;27;96798;-62
2021/06/28 13:03:23;;;;;;;;;13.00;13.00;;;;;35.04;25.03;98811.88;6289540;27;96359;-60
2021/06/28 13:06:56;;;;;;;;;13.00;12.40;;;;;35.27;25.08;98818.13;6340580;27;96867;-62
2021/06/28 13:10:27;;;;;;;;;14.00;14.00;;;;;35.32;24.66;98819.75;6282173;27;96685;-63
2021/06/28 13:14:11;;;;;;;;;16.00;15.00;;;;;35.42;25.77;98816.25;6273359;27;96305;-63
2021/06/28 13:17:39;;;;;;;;;14.20;14.20;;;;;35.67;25.69;98813.66;6266457;27;96365;-64
2021/06/28 13:21:17;;;;;;;;;13.60;13.00;;;;;36.04;24.85;98817.06;6266615;27;96813;-63
2021/06/28 13:24:56;;;;;;;;;17.80;16.80;;;;;36.31;25.14;98821.22;6269525;27;96530;-63
2021/06/28 13:28:13;;;;;;;;;15.20;14.80;;;;;36.31;23.94;98818.44;5417132;27;27160231;-65
2021/06/28 13:31:59;;;;;;;;;16.00;15.00;;;;;36.44;24.51;98810.47;6292747;27;96479;-64
2021/06/28 13:35:31;;;;;;;;;16.00;14.00;;;;;36.54;24.12;98811.72;6271433;27;96344;-63
2021/06/28 13:39:00;;;;;;;;;16.00;15.33;;;;;36.50;25.05;98822.94;6269891;27;97109;-64
2021/06/28 13:42:34;;;;;;;;;15.00;13.00;;;;;36.33;24.98;98815.22;6243332;27;96979;-64
2021/06/28 13:46:06;;;;;;;;;16.25;16.00;;;;;36.24;25.13;98815.59;6298163;27;96491;-63
2021/06/28 13:49:40;;;;;;;;;16.75;15.00;;;;;36.01;25.54;98810.25;6290895;27;97040;-64
2021/06/28 13:53:16;;;;;;;;;17.00;17.00;;;;;35.82;25.58;98806.94;6354736;27;96236;-65
2021/06/28 13:56:48;;;;;;;;;17.40;16.40;;;;;35.74;26.05;98808.06;6337983;27;96411;-63
2021/06/28 14:00:22;;;;;;;;;17.00;17.00;;;;;35.57;25.12;98804.75;6283376;27;96279;-64
2021/06/28 14:03:54;;;;;;;;;13.00;13.00;;;;;35.61;26.74;98801.97;6350677;27;96959;-64
2021/06/28 14:07:28;;;;;;;;;15.40;15.00;;;;;35.69;25.97;98803.63;6350571;27;96464;-65
2021/06/28 14:11:00;;;;;;;;;16.00;15.00;;;;;35.85;26.53;98804.16;6340782;27;97074;-65
2021/06/28 14:14:30;;;;;;;;;16.00;16.00;;;;;35.95;25.92;98806.22;6282766;27;96385;-64
2021/06/28 14:18:13;;;;;;;;;16.00;14.60;;;;;35.70;25.35;98768.00;6295757;27;96364;-63
2021/06/28 14:21:46;;;;;;;;;15.00;14.00;;;;;35.85;25.95;98806.16;6333103;27;97078;-64
2021/06/28 14:25:15;;;;;;;;;14.20;14.20;;;;;35.89;26.13;98802.16;6278686;27;96290;-63
2021/06/28 14:28:48;;;;;;;;;15.80;15.00;;;;;35.74;26.41;98803.28;6336723;27;96529;-64
2021/06/28 14:32:26;;;;;;;;;14.00;14.00;;;;;35.77;26.72;98804.50;6308760;27;96525;-62
2021/06/28 14:35:54;;;;;;;;;17.40;16.00;;;;;35.81;26.33;98797.72;6295735;27;96454;-64
2021/06/28 14:39:26;;;;;;;;;16.00;15.00;;;;;35.86;26.64;98802.97;6282676;27;96832;-64
2021/06/28 14:42:58;;;;;;;;;14.60;14.00;;;;;35.65;25.96;98785.97;6292213;27;96353;-63
2021/06/28 14:46:27;;;;;;;;;16.00;14.00;;;;;35.35;25.96;98791.75;6277431;27;96290;-64
2021/06/28 14:49:57;;;;;;;;;15.00;13.75;;;;;35.25;26.69;98794.47;6292877;27;96877;-63
2021/06/28 14:53:29;;;;;;;;;13.80;13.00;;;;;35.22;27.27;98793.25;6345059;27;96548;-62
2021/06/28 14:57:06;;;;;;;;;13.50;13.00;;;;;35.21;26.46;98797.25;6280102;27;96727;-64
2021/06/28 15:00:38;;;;;;;;;14.20;12.20;;;;;34.96;26.43;98794.19;6347338;27;96254;-63
2021/06/28 15:04:10;;;;;;;;;17.20;16.00;;;;;34.75;26.56;98791.97;6354234;27;96214;-65
2021/06/28 15:07:40;;;;;;;;;16.60;15.60;;;;;34.78;26.71;98790.41;6283064;27;96894;-63
2021/06/28 15:11:15;;;;;;;;;16.40;15.40;;;;;34.76;27.10;98787.19;6279204;27;96899;-64